Time;durP1;ratioP1;P1;durP2;ratioP2;P2;SDS_P1;SDS_P2;PMS_P1;PMS_P2;Temp;Humidity;BMP_temperature;BMP_pressure;BME280_temperature;BME280_humidity;BME280_pressure;Samples;Min_cycle;Max_cycle;Signal;HPM_P1;HPM_P2
2021/04/08 00:00:24;;;;;;;;;12.67;12.00;;;;;8.18;41.80;98434.34;5633152;28;5708495;-62
2021/04/08 00:03:29;;;;;;;;;13.00;12.83;;;;;8.17;41.76;98435.38;5602498;28;4963724;-62
2021/04/08 00:06:35;;;;;;;;;11.67;11.00;;;;;8.15;41.56;98437.47;5635258;28;5674128;-63
2021/04/08 00:09:44;;;;;;;;;14.67;13.33;;;;;8.12;41.68;98432.50;5628687;28;5703274;-63
2021/04/08 00:12:50;;;;;;;;;13.33;12.00;;;;;7.96;41.40;98430.38;5627954;28;4966866;-63
2021/04/08 00:15:57;;;;;;;;;15.00;13.71;;;;;7.94;41.34;98429.75;5634132;28;6454313;-63
2021/04/08 00:19:06;;;;;;;;;12.00;12.00;;;;;7.99;41.40;98424.56;5644936;28;4964798;-63
2021/04/08 00:22:12;;;;;;;;;13.43;13.00;;;;;7.95;41.16;98421.50;5619174;28;5699191;-62
2021/04/08 00:25:19;;;;;;;;;14.00;13.29;;;;;7.92;41.16;98431.81;5646175;28;5712745;-62
2021/04/08 00:28:23;;;;;;;;;16.00;15.00;;;;;7.90;41.21;98434.72;5602093;28;4234599;-62
2021/04/08 00:31:27;;;;;;;;;13.33;12.17;;;;;7.70;40.87;98410.69;5605913;28;4965146;-63
2021/04/08 00:34:34;;;;;;;;;13.00;12.67;;;;;7.91;40.94;98438.25;5620522;28;4221047;-63
2021/04/08 00:37:40;;;;;;;;;11.67;11.17;;;;;7.91;41.16;98432.88;5637169;28;5694982;-62
2021/04/08 00:40:46;;;;;;;;;12.67;12.00;;;;;7.90;41.10;98431.22;5621830;28;5702225;-62
2021/04/08 00:43:52;;;;;;;;;14.50;14.00;;;;;7.87;41.03;98434.34;5645862;28;5705401;-62
2021/04/08 00:46:59;;;;;;;;;15.43;13.00;;;;;7.88;40.90;98433.28;5644353;28;5729363;-62
2021/04/08 00:50:08;;;;;;;;;14.83;13.83;;;;;7.62;40.96;98397.53;5616378;28;4988854;-63
2021/04/08 00:53:21;;;;;;;;;16.00;14.00;;;;;7.85;40.86;98426.50;5619207;28;5716819;-62
2021/04/08 00:56:29;;;;;;;;;15.67;14.17;;;;;7.82;40.79;98421.53;5643792;28;5735626;-63
2021/04/08 00:59:33;;;;;;;;;16.00;14.00;;;;;7.86;40.90;98427.31;5625223;28;4306400;-63
2021/04/08 01:02:39;;;;;;;;;14.00;13.00;;;;;7.89;40.69;98437.63;5630590;28;5702241;-62
2021/04/08 01:05:46;;;;;;;;;13.67;13.00;;;;;7.80;40.67;98404.84;5637502;28;5708478;-62
2021/04/08 01:08:49;;;;;;;;;13.33;12.00;;;;;7.96;40.57;98436.56;5627499;28;4355959;-63
2021/04/08 01:11:56;;;;;;;;;14.29;13.71;;;;;7.87;40.87;98439.72;5613999;28;5721478;-62
2021/04/08 01:15:04;;;;;;;;;13.50;13.00;;;;;7.87;40.90;98439.72;5624993;28;5698114;-63
2021/04/08 01:18:24;;;;;;;;;12.00;11.00;;;;;7.79;40.94;98438.91;5619565;28;5687742;-63
2021/04/08 01:21:38;;;;;;;;;14.71;13.71;;;;;7.75;41.14;98450.28;5631920;28;5706470;-63
2021/04/08 01:25:10;;;;;;;;;13.17;12.67;;;;;7.73;41.16;98442.44;5609107;28;5688708;-63
2021/04/08 01:28:26;;;;;;;;;13.00;11.67;;;;;7.68;41.11;98449.50;5627361;28;5681393;-63
2021/04/08 01:31:37;;;;;;;;;14.83;13.83;;;;;7.48;41.23;98416.59;5626720;28;5718947;-63
2021/04/08 01:34:48;;;;;;;;;16.29;15.00;;;;;7.70;41.06;98450.09;5623354;28;6479285;-63
2021/04/08 01:38:01;;;;;;;;;14.00;12.00;;;;;7.62;41.20;98445.81;5630492;28;5685591;-63
2021/04/08 01:41:09;;;;;;;;;12.00;12.00;;;;;7.56;41.21;98443.16;5614042;28;5697041;-63
2021/04/08 01:44:18;;;;;;;;;13.71;12.29;;;;;7.52;41.24;98450.00;5628637;28;5712728;-63
2021/04/08 01:47:27;;;;;;;;;15.50;13.00;;;;;7.44;41.44;98439.47;5639866;28;5729377;-63
2021/04/08 01:50:35;;;;;;;;;12.17;11.17;;;;;7.21;41.50;98408.66;5648293;28;5691829;-63
2021/04/08 01:53:45;;;;;;;;;14.00;13.00;;;;;7.51;41.54;98435.75;5626496;28;5700556;-63
2021/04/08 01:56:55;;;;;;;;;13.00;11.83;;;;;7.46;41.18;98432.88;5643406;28;5691874;-63
2021/04/08 02:00:02;;;;;;;;;11.00;10.17;;;;;7.46;41.38;98440.94;5635410;28;5660595;-63
2021/04/08 02:03:15;;;;;;;;;13.50;12.50;;;;;7.53;41.29;98435.53;5647968;28;5690826;-63
2021/04/08 02:06:24;;;;;;;;;12.29;11.43;;;;;7.54;41.18;98438.00;5635728;28;5697431;-62
2021/04/08 02:09:32;;;;;;;;;14.29;14.00;;;;;7.60;41.10;98436.34;5635538;28;5725255;-63
2021/04/08 02:12:40;;;;;;;;;13.67;13.00;;;;;7.61;41.02;98436.13;5631748;28;5694962;-63
2021/04/08 02:15:48;;;;;;;;;13.00;11.86;;;;;7.55;40.97;98430.78;5630811;28;5692861;-63
2021/04/08 02:18:58;;;;;;;;;14.33;12.00;;;;;7.59;41.23;98434.69;5646899;28;5680415;-63
2021/04/08 02:22:07;;;;;;;;;14.83;13.83;;;;;7.44;41.15;98426.06;5629720;28;5731450;-63
2021/04/08 02:25:15;;;;;;;;;12.33;11.33;;;;;7.49;41.16;98431.63;5629916;28;5691841;-63
2021/04/08 02:28:22;;;;;;;;;11.67;11.00;;;;;7.49;41.07;98431.63;5634918;28;4966961;-63
2021/04/08 02:31:29;;;;;;;;;13.00;12.33;;;;;7.45;40.77;98425.03;5629581;28;5679344;-63
2021/04/08 02:34:37;;;;;;;;;13.00;12.50;;;;;7.52;41.01;98428.53;5648111;28;5691843;-63
2021/04/08 02:37:43;;;;;;;;;12.83;12.83;;;;;7.54;41.06;98429.97;5628152;28;5702288;-63
2021/04/08 02:40:51;;;;;;;;;14.00;13.00;;;;;7.59;40.80;98438.19;5641814;28;6441791;-63
2021/04/08 02:43:57;;;;;;;;;11.00;10.83;;;;;7.63;40.71;98439.41;5651073;28;5688720;-63
2021/04/08 02:47:03;;;;;;;;;12.67;11.33;;;;;7.70;40.68;98439.38;5645404;28;5702738;-63
2021/04/08 02:50:10;;;;;;;;;13.67;12.17;;;;;7.77;40.40;98445.56;5633484;28;5702253;-63
2021/04/08 02:53:22;;;;;;;;;12.00;11.17;;;;;7.74;40.43;98444.09;5630157;28;4947094;-63
2021/04/08 02:56:33;;;;;;;;;11.33;11.33;;;;;7.75;40.26;98448.44;5645625;28;5698127;-63
2021/04/08 02:59:44;;;;;;;;;11.33;11.00;;;;;7.71;40.42;98452.59;5646069;28;5676229;-63
2021/04/08 03:02:53;;;;;;;;;11.00;10.17;;;;;7.75;40.29;98453.81;5623505;28;4917276;-63
2021/04/08 03:06:05;;;;;;;;;11.29;11.00;;;;;7.78;40.29;98453.38;5600840;28;5699244;-63
2021/04/08 03:09:12;;;;;;;;;12.00;10.33;;;;;7.75;40.46;98451.13;5628069;28;5682451;-63
2021/04/08 03:12:20;;;;;;;;;10.17;10.00;;;;;7.63;40.38;98454.66;5647592;28;4931482;-63
2021/04/08 03:15:29;;;;;;;;;11.67;10.00;;;;;7.64;40.50;98453.63;5614464;28;4945034;-63
2021/04/08 03:18:36;;;;;;;;;12.83;11.17;;;;;7.61;40.67;98448.72;5646829;28;5660980;-63
2021/04/08 03:21:44;;;;;;;;;9.00;9.00;;;;;7.56;40.68;98452.03;5633188;28;4882524;-63
2021/04/08 03:24:51;;;;;;;;;11.00;10.00;;;;;7.54;40.68;98446.06;5613790;28;5675314;-63
2021/04/08 03:27:58;;;;;;;;;11.40;10.00;;;;;7.56;40.41;98449.34;5633416;28;4935602;-62
2021/04/08 03:31:03;;;;;;;;;11.00;10.40;;;;;7.52;40.77;98452.69;5636995;28;4951209;-63
2021/04/08 03:34:11;;;;;;;;;11.00;10.00;;;;;7.49;40.83;98451.22;5617687;28;5671012;-62
2021/04/08 03:37:18;;;;;;;;;12.80;11.00;;;;;7.52;40.93;98458.88;5640491;28;4927273;-62
2021/04/08 03:40:25;;;;;;;;;13.00;11.00;;;;;7.45;40.74;98460.75;5638505;28;5682497;-62
2021/04/08 03:43:32;;;;;;;;;12.00;10.60;;;;;7.20;40.98;98414.22;5627583;28;4947110;-62
2021/04/08 03:46:38;;;;;;;;;10.17;10.00;;;;;7.32;40.92;98439.34;5638989;28;4947112;-62
2021/04/08 03:49:47;;;;;;;;;11.00;10.33;;;;;7.50;40.87;98463.59;5639425;28;5681385;-62
2021/04/08 03:52:54;;;;;;;;;11.00;10.00;;;;;7.52;40.93;98453.50;5641394;28;4934596;-62
2021/04/08 03:56:03;;;;;;;;;12.50;12.00;;;;;7.60;40.92;98465.84;5623421;28;4969040;-62
2021/04/08 03:59:11;;;;;;;;;12.33;11.83;;;;;7.70;40.54;98456.31;5625204;28;5698114;-62
2021/04/08 04:02:16;;;;;;;;;8.00;7.00;;;;;7.87;40.37;98466.56;5620733;28;4178265;-62
2021/04/08 04:05:23;;;;;;;;;12.00;11.17;;;;;7.93;40.35;98465.66;5642739;28;5693927;-62
2021/04/08 04:08:32;;;;;;;;;13.33;13.00;;;;;7.93;40.12;98481.78;5649390;28;5671028;-62
2021/04/08 04:11:40;;;;;;;;;10.60;9.00;;;;;7.94;40.23;98478.88;5625523;28;4902265;-63
2021/04/08 04:14:48;;;;;;;;;12.67;11.00;;;;;8.04;40.04;98481.94;5596617;28;5702264;-62
2021/04/08 04:17:51;;;;;;;;;10.00;9.00;;;;;8.16;40.04;98484.75;5629023;28;4921036;-62
2021/04/08 04:20:57;;;;;;;;;12.33;11.67;;;;;8.24;39.94;98482.63;5638755;28;5688716;-62
2021/04/08 04:24:02;;;;;;;;;10.33;10.17;;;;;8.18;39.82;98453.97;5597339;28;5660620;-62
2021/04/08 04:27:09;;;;;;;;;11.00;11.00;;;;;8.40;39.41;98484.00;5624317;28;5687649;-62
2021/04/08 04:30:14;;;;;;;;;9.00;9.00;;;;;8.39;39.54;98486.91;5638745;28;4254375;-62
2021/04/08 04:33:19;;;;;;;;;10.00;10.00;;;;;8.44;39.21;98495.97;5645257;28;4951244;-62
2021/04/08 04:36:24;;;;;;;;;8.40;8.00;;;;;8.45;39.37;98488.72;5644931;28;4882489;-62
2021/04/08 04:39:28;;;;;;;;;8.67;8.00;;;;;8.44;39.32;98492.44;5619871;28;4871055;-62
2021/04/08 04:42:31;;;;;;;;;11.25;10.00;;;;;8.43;39.35;98488.13;5630470;28;4391844;-62
2021/04/08 04:45:36;;;;;;;;;10.80;9.40;;;;;8.43;39.44;98490.81;5647463;28;4291266;-62
2021/04/08 04:48:41;;;;;;;;;10.00;10.00;;;;;8.53;39.72;98499.19;5645096;28;5683524;-62
2021/04/08 04:51:47;;;;;;;;;12.17;10.33;;;;;8.41;40.53;98501.75;5631373;28;5698477;-62
2021/04/08 04:54:55;;;;;;;;;15.00;12.00;;;;;8.39;40.98;98509.22;5644920;28;4943019;-62
2021/04/08 04:58:01;;;;;;;;;11.00;10.33;;;;;8.42;41.21;98508.78;5617002;28;5683562;-62
2021/04/08 05:01:08;;;;;;;;;14.67;13.00;;;;;8.43;41.84;98507.75;5640745;28;5693924;-62
2021/04/08 05:04:17;;;;;;;;;14.00;13.00;;;;;8.50;42.27;98518.44;5628193;28;5708507;-62
2021/04/08 05:07:22;;;;;;;;;13.00;12.17;;;;;8.55;42.58;98526.69;5649461;28;5695015;-62
2021/04/08 05:10:34;;;;;;;;;12.67;12.17;;;;;8.43;43.07;98521.19;5608513;28;5691849;-62
2021/04/08 05:13:40;;;;;;;;;12.67;12.00;;;;;8.58;43.40;98528.94;5640724;28;4975531;-62
2021/04/08 05:16:47;;;;;;;;;15.71;15.00;;;;;8.40;44.22;98532.38;5626236;28;6454322;-62
2021/04/08 05:19:54;;;;;;;;;10.67;10.67;;;;;8.38;44.96;98537.13;5629188;28;5674141;-62
2021/04/08 05:22:59;;;;;;;;;13.67;13.33;;;;;8.40;45.53;98540.44;5607738;28;5714740;-62
2021/04/08 05:26:06;;;;;;;;;12.83;11.83;;;;;8.36;46.08;98549.94;5631179;28;5672125;-62
2021/04/08 05:29:14;;;;;;;;;15.71;14.86;;;;;8.36;46.17;98554.47;5626617;28;6466844;-62
2021/04/08 05:32:21;;;;;;;;;17.57;15.14;;;;;8.22;46.16;98543.78;5648778;28;6477233;-62
2021/04/08 05:35:27;;;;;;;;;14.17;12.17;;;;;8.34;46.33;98556.56;5639817;28;4955463;-62
2021/04/08 05:38:34;;;;;;;;;15.00;13.71;;;;;8.32;46.79;98558.63;5630701;28;5733628;-62
2021/04/08 05:41:43;;;;;;;;;15.33;14.67;;;;;8.16;47.16;98558.06;5616957;28;5723101;-62
2021/04/08 05:44:50;;;;;;;;;15.00;14.00;;;;;8.30;47.02;98566.94;5640662;28;5725160;-62
2021/04/08 05:47:56;;;;;;;;;10.83;10.67;;;;;8.43;46.84;98564.16;5629031;28;5675187;-62
2021/04/08 05:50:59;;;;;;;;;14.00;13.00;;;;;8.44;47.15;98564.97;5625582;28;4067966;-62
2021/04/08 05:54:07;;;;;;;;;12.33;11.83;;;;;8.45;47.12;98563.94;5635142;28;5673079;-62
2021/04/08 05:57:13;;;;;;;;;14.71;13.29;;;;;8.30;47.81;98587.59;5620770;28;5702344;-62
2021/04/08 06:00:21;;;;;;;;;16.29;14.29;;;;;8.45;47.44;98583.59;5617602;28;6457402;-62
2021/04/08 06:03:26;;;;;;;;;15.00;15.00;;;;;8.44;47.82;98581.94;5634525;28;5724100;-62
2021/04/08 06:06:31;;;;;;;;;15.57;13.57;;;;;8.35;48.37;98590.44;5620056;28;6450223;-62
2021/04/08 06:09:38;;;;;;;;;14.00;14.00;;;;;8.46;48.06;98595.13;5632988;28;5685611;-62
2021/04/08 06:12:47;;;;;;;;;15.14;14.14;;;;;8.30;48.49;98599.16;5631731;28;6452239;-62
2021/04/08 06:15:55;;;;;;;;;15.67;14.00;;;;;8.10;48.55;98583.09;5629732;28;5748117;-61
2021/04/08 06:19:01;;;;;;;;;17.29;16.71;;;;;8.48;48.34;98604.63;5621581;28;5753383;-61
2021/04/08 06:22:08;;;;;;;;;14.67;14.00;;;;;8.39;48.78;98616.66;5607805;28;5706851;-61
2021/04/08 06:25:14;;;;;;;;;15.50;13.00;;;;;8.34;48.81;98621.03;5621826;28;5700190;-61
2021/04/08 06:28:22;;;;;;;;;18.67;18.67;;;;;8.37;49.29;98628.66;5616360;28;5753253;-61
2021/04/08 06:31:28;;;;;;;;;17.00;17.00;;;;;8.39;49.30;98630.09;5608995;28;5746064;-61
2021/04/08 06:34:31;;;;;;;;;19.25;18.00;;;;;8.55;49.13;98636.84;5593760;28;3897949;-61
2021/04/08 06:37:39;;;;;;;;;17.29;17.29;;;;;8.29;49.02;98605.53;5609153;28;6477602;-61
2021/04/08 06:40:45;;;;;;;;;17.56;15.89;;;;;8.47;49.19;98643.28;5599840;28;5749583;-61
2021/04/08 06:43:54;;;;;;;;;18.29;16.29;;;;;8.53;49.32;98634.38;5607310;28;6495966;-62
2021/04/08 06:47:03;;;;;;;;;16.00;14.00;;;;;8.48;49.26;98649.47;5577979;28;5752231;-61
2021/04/08 06:50:12;;;;;;;;;17.00;14.43;;;;;8.33;49.41;98622.06;5613900;28;6468853;-61
2021/04/08 06:53:16;;;;;;;;;17.00;15.00;;;;;8.55;49.08;98651.06;5596438;28;4367864;-61
2021/04/08 06:56:23;;;;;;;;;19.00;15.00;;;;;8.58;48.93;98650.66;5603655;28;6500138;-60
2021/04/08 06:59:27;;;;;;;;;17.00;14.00;;;;;8.67;48.54;98651.22;5613125;28;4103812;-60
2021/04/08 07:02:33;;;;;;;;;16.33;14.17;;;;;8.82;48.12;98662.53;5595449;28;5741854;-60
2021/04/08 07:05:39;;;;;;;;;16.00;15.00;;;;;9.09;47.25;98663.16;5611837;28;6454319;-61
2021/04/08 07:08:44;;;;;;;;;16.00;15.00;;;;;9.28;46.66;98672.16;5603505;28;4558517;-61
2021/04/08 07:11:51;;;;;;;;;14.33;13.33;;;;;9.43;46.21;98676.16;5588237;28;5712717;-63
2021/04/08 07:14:57;;;;;;;;;15.17;14.17;;;;;9.58;45.74;98675.81;5603201;28;5702270;-61
2021/04/08 07:18:05;;;;;;;;;15.67;14.00;;;;;9.69;45.22;98685.88;5613860;28;5727357;-61
2021/04/08 07:21:11;;;;;;;;;17.29;16.00;;;;;9.85;44.85;98693.38;5584432;28;6498077;-60
2021/04/08 07:24:20;;;;;;;;;20.50;17.67;;;;;9.86;44.60;98689.66;5627469;28;5728274;-61
2021/04/08 07:27:34;;;;;;;;;15.67;15.33;;;;;10.07;44.32;98695.69;5587101;28;5739787;-62
2021/04/08 07:30:42;;;;;;;;;16.00;16.00;;;;;9.94;44.13;98710.06;5600659;28;5758639;-62
2021/04/08 07:33:48;;;;;;;;;17.00;15.00;;;;;10.14;43.49;98701.81;5606520;28;5748183;-60
2021/04/08 07:36:55;;;;;;;;;19.71;16.71;;;;;10.69;42.95;98722.34;5611672;28;5747403;-61
2021/04/08 07:40:13;;;;;;;;;16.60;15.60;;;;;10.75;42.24;98726.03;5621246;28;5754279;-61
2021/04/08 07:43:19;;;;;;;;;18.71;16.71;;;;;10.86;42.09;98728.75;5620158;28;6485583;-62
2021/04/08 07:46:35;;;;;;;;;16.43;15.29;;;;;10.86;41.60;98742.25;5621722;28;5752355;-63
2021/04/08 07:49:44;;;;;;;;;19.43;17.57;;;;;10.96;41.30;98738.19;5628196;28;5750164;-62
2021/04/08 07:52:50;;;;;;;;;18.33;17.83;;;;;10.80;41.44;98740.44;5618686;28;5738673;-61
2021/04/08 07:55:56;;;;;;;;;18.71;17.00;;;;;10.69;41.52;98721.53;5634196;28;5769039;-61
2021/04/08 07:59:23;;;;;;;;;18.00;16.14;;;;;10.89;41.80;98757.16;5629035;28;5758507;-62
2021/04/08 08:02:27;;;;;;;;;17.67;15.00;;;;;10.63;41.81;98754.78;5585811;28;3892000;-61
2021/04/08 08:05:37;;;;;;;;;18.29;17.57;;;;;10.54;41.94;98765.03;5606723;28;6508475;-61
2021/04/08 08:08:44;;;;;;;;;21.00;18.14;;;;;10.50;41.66;98752.22;5613203;28;6487627;-61
2021/04/08 08:11:53;;;;;;;;;18.00;16.29;;;;;10.85;41.67;98778.34;5613823;28;6498058;-61
2021/04/08 08:15:14;;;;;;;;;20.71;18.71;;;;;11.09;41.44;98773.09;5618699;28;6508502;-62
2021/04/08 08:18:27;;;;;;;;;19.71;17.86;;;;;11.36;40.76;98774.38;5604800;28;6497017;-62
2021/04/08 08:21:35;;;;;;;;;21.00;19.00;;;;;11.60;40.61;98792.28;5584588;28;3931553;-62
2021/04/08 08:24:53;;;;;;;;;19.71;18.29;;;;;11.56;40.07;98799.19;5630672;28;6510557;-61
2021/04/08 08:27:59;;;;;;;;;20.17;19.00;;;;;11.64;40.61;98796.16;5614798;28;5768943;-62
2021/04/08 08:31:06;;;;;;;;;21.43;20.00;;;;;11.64;40.65;98815.06;5615861;28;6516812;-61
2021/04/08 08:34:16;;;;;;;;;19.29;18.29;;;;;11.25;40.90;98789.44;5607735;28;6491856;-61
2021/04/08 08:37:25;;;;;;;;;20.29;18.43;;;;;11.38;41.03;98833.53;5642574;28;6498047;-63
2021/04/08 08:40:53;;;;;;;;;21.29;19.57;;;;;11.25;41.25;98842.59;5611134;28;6512653;-62
2021/04/08 08:44:02;;;;;;;;;17.17;16.67;;;;;11.10;41.47;98858.34;5613041;28;5738086;-62
2021/04/08 08:47:11;;;;;;;;;14.00;13.00;;;;;11.09;41.04;98857.53;5595994;28;4305422;-63
2021/04/08 08:50:19;;;;;;;;;12.00;11.60;;;;;11.20;41.62;98861.34;5614305;28;4950212;-62
2021/04/08 08:53:25;;;;;;;;;12.00;11.33;;;;;11.27;41.53;98862.94;5611016;28;4962833;-62
2021/04/08 08:56:32;;;;;;;;;9.40;9.40;;;;;11.24;40.89;98857.97;5634054;28;4196011;-64
2021/04/08 08:59:39;;;;;;;;;11.17;11.00;;;;;11.51;40.91;98863.88;5631746;28;4948206;-63
2021/04/08 09:03:06;;;;;;;;;12.40;10.00;;;;;12.12;40.14;98852.78;5614826;28;4934592;-62
2021/04/08 09:06:35;;;;;;;;;13.33;12.33;;;;;12.80;39.11;98852.25;5612011;28;5688727;-62
2021/04/08 09:09:50;;;;;;;;;14.00;13.00;;;;;13.37;37.27;98847.81;5609768;28;5719000;-63
2021/04/08 09:13:17;;;;;;;;;15.67;14.83;;;;;13.46;35.61;98850.94;5606551;28;5732501;-62
2021/04/08 09:16:21;;;;;;;;;17.00;15.00;;;;;13.28;36.39;98829.47;5607492;28;4531446;-62
2021/04/08 09:19:31;;;;;;;;;15.00;12.57;;;;;13.37;35.83;98855.09;5632807;28;5713747;-62
2021/04/08 09:22:49;;;;;;;;;17.00;14.67;;;;;13.53;34.49;98854.34;5625965;28;4479421;-63
2021/04/08 09:25:57;;;;;;;;;14.86;14.43;;;;;13.54;34.62;98858.69;5624185;28;5712765;-63
2021/04/08 09:29:00;;;;;;;;;16.33;15.33;;;;;13.63;34.18;98851.84;5622789;28;3885607;-63
2021/04/08 09:32:26;;;;;;;;;14.00;13.33;;;;;14.38;33.10;98861.56;5614981;28;5733510;-64
2021/04/08 09:35:33;;;;;;;;;12.17;12.00;;;;;14.49;32.27;98849.81;5629963;28;5691845;-63
2021/04/08 09:38:40;;;;;;;;;12.67;11.67;;;;;14.91;32.02;98861.81;5630802;28;5688764;-65
2021/04/08 09:41:50;;;;;;;;;12.00;10.83;;;;;14.54;31.25;98850.72;5612871;28;5655435;-64
2021/04/08 09:44:59;;;;;;;;;12.17;11.83;;;;;14.37;31.78;98857.22;5619525;28;5689773;-64
2021/04/08 09:48:09;;;;;;;;;11.67;11.00;;;;;14.11;32.43;98870.31;5605316;28;5673108;-63
2021/04/08 09:51:27;;;;;;;;;15.00;14.00;;;;;13.99;33.07;98877.69;5624775;28;5694942;-63
2021/04/08 09:54:40;;;;;;;;;15.17;13.00;;;;;13.76;33.49;98881.34;5626039;28;5701212;-64
2021/04/08 09:57:45;;;;;;;;;14.00;13.00;;;;;13.66;33.29;98883.03;5577095;28;4950176;-64
2021/04/08 10:00:52;;;;;;;;;11.50;9.50;;;;;13.23;32.41;98900.59;5620711;28;5644999;-65
2021/04/08 10:03:55;;;;;;;;;7.17;7.00;;;;;13.32;32.23;98901.03;5593955;28;4160692;-66
2021/04/08 10:07:01;;;;;;;;;8.00;8.00;;;;;13.38;31.67;98894.66;5608413;28;4882506;-64
2021/04/08 10:10:09;;;;;;;;;10.00;9.00;;;;;13.56;31.01;98904.50;5648727;28;5621030;-65
2021/04/08 10:13:17;;;;;;;;;9.00;9.00;;;;;13.56;30.54;98897.19;5621378;28;4872074;-65
2021/04/08 10:16:22;;;;;;;;;7.00;7.00;;;;;13.39;29.42;98896.28;5632797;28;4878323;-62
2021/04/08 10:19:31;;;;;;;;;7.78;7.00;;;;;13.86;28.99;98900.50;5655602;28;3787714;-63
2021/04/08 10:22:42;;;;;;;;;8.00;7.00;;;;;14.31;28.23;98899.69;5605169;28;4861634;-63
2021/04/08 10:25:55;;;;;;;;;9.00;9.00;;;;;14.78;27.50;98896.66;5618031;28;4862723;-63
2021/04/08 10:29:02;;;;;;;;;7.83;6.33;;;;;15.11;28.09;98907.44;5635723;28;4863754;-63
2021/04/08 10:32:07;;;;;;;;;8.00;8.00;;;;;15.50;28.33;98906.34;5598113;28;4162732;-63
2021/04/08 10:35:20;;;;;;;;;9.00;7.00;;;;;15.52;27.58;98912.38;5627208;28;4884542;-62
2021/04/08 10:38:25;;;;;;;;;9.00;8.00;;;;;15.46;26.84;98905.22;5613977;28;4854379;-62
2021/04/08 10:41:31;;;;;;;;;6.00;6.00;;;;;15.59;27.08;98907.56;5641669;28;4148147;-62
2021/04/08 10:44:36;;;;;;;;;8.00;8.00;;;;;15.45;27.41;98919.03;5610781;28;4855409;-63
2021/04/08 10:47:41;;;;;;;;;8.00;7.60;;;;;14.91;27.76;98912.56;5620917;28;4880423;-63
2021/04/08 10:50:52;;;;;;;;;9.38;8.00;;;;;14.52;28.75;98926.09;5637716;28;3819007;-64
2021/04/08 10:53:57;;;;;;;;;8.00;7.00;;;;;14.19;32.25;98947.72;5622791;28;4148239;-64
2021/04/08 10:57:03;;;;;;;;;9.00;8.00;;;;;13.46;33.76;98951.16;5606413;28;4886653;-64
2021/04/08 11:00:10;;;;;;;;;6.33;6.00;;;;;13.13;33.96;98953.69;5618181;28;4854797;-63
2021/04/08 11:03:15;;;;;;;;;6.67;6.00;;;;;12.83;33.62;98951.06;5604074;28;4857424;-64
2021/04/08 11:06:22;;;;;;;;;5.00;5.00;;;;;12.54;33.38;98948.22;5624964;28;4108555;-64
2021/04/08 11:09:27;;;;;;;;;6.00;6.00;;;;;12.56;34.04;98950.66;5589407;28;4854342;-63
2021/04/08 11:12:36;;;;;;;;;6.20;6.10;;;;;13.39;32.79;98943.16;5637645;28;4866940;-63
2021/04/08 11:15:42;;;;;;;;;6.00;5.00;;;;;14.43;32.34;98943.00;5624594;28;4863748;-62
2021/04/08 11:18:45;;;;;;;;;4.60;4.60;;;;;15.13;30.18;98936.00;5615008;28;4851230;-63
2021/04/08 11:21:49;;;;;;;;;6.00;6.00;;;;;16.06;29.64;98946.97;5598027;28;4854738;-65
2021/04/08 11:24:54;;;;;;;;;7.00;7.00;;;;;16.68;28.23;98939.97;5611473;28;4850207;-64
2021/04/08 11:28:00;;;;;;;;;7.00;7.00;;;;;16.76;26.21;98935.97;5630889;28;4858891;-63
2021/04/08 11:31:12;;;;;;;;;7.00;6.40;;;;;16.82;26.28;98918.56;5635958;28;4866884;-63
2021/04/08 11:34:45;;;;;;;;;6.00;5.89;;;;;16.60;26.49;98934.22;5616676;28;4148116;-64
2021/04/08 11:38:11;;;;;;;;;7.44;7.00;;;;;16.99;26.68;98934.78;5667380;28;4854406;-62
2021/04/08 11:41:14;;;;;;;;;7.00;6.00;;;;;17.28;26.42;98961.41;5602080;28;4870295;-63
2021/04/08 11:44:27;;;;;;;;;7.60;7.40;;;;;16.72;28.05;98990.09;5619344;28;4884582;-63
2021/04/08 11:47:32;;;;;;;;;9.60;9.00;;;;;15.93;30.91;99016.19;5635056;28;4882490;-64
2021/04/08 11:50:41;;;;;;;;;11.00;9.00;;;;;15.15;33.13;99014.50;5627246;28;4906464;-63
2021/04/08 11:53:46;;;;;;;;;10.00;9.00;;;;;14.74;34.47;99023.88;5633629;28;4886972;-62
2021/04/08 11:56:51;;;;;;;;;10.00;10.00;;;;;14.24;35.68;99016.44;5630642;28;4921045;-62
2021/04/08 12:00:03;;;;;;;;;8.00;7.00;;;;;13.80;36.94;99028.00;5634153;28;4847078;-61
2021/04/08 12:03:17;;;;;;;;;6.00;6.00;;;;;13.25;37.40;99024.88;5671125;28;4138778;-61
2021/04/08 12:06:22;;;;;;;;;6.00;6.00;;;;;13.22;37.04;99014.53;5624009;28;4858505;-61
2021/04/08 12:09:35;;;;;;;;;8.40;7.00;;;;;13.66;38.05;98997.63;5634154;28;4857499;-62
2021/04/08 12:12:52;;;;;;;;;7.00;6.22;;;;;14.16;37.66;98987.00;5659046;28;4865872;-62
2021/04/08 12:15:58;;;;;;;;;9.00;8.40;;;;;14.95;36.80;99000.63;5637763;28;4886672;-62
2021/04/08 12:19:02;;;;;;;;;8.60;8.20;;;;;15.35;35.93;99001.22;5612827;28;4152343;-61
2021/04/08 12:22:06;;;;;;;;;8.20;7.00;;;;;15.61;34.08;98999.72;5620366;28;4857522;-61
2021/04/08 12:25:14;;;;;;;;;9.00;8.00;;;;;15.79;32.90;98999.41;5631265;28;4861662;-62
2021/04/08 12:28:18;;;;;;;;;7.60;7.00;;;;;15.72;33.15;98982.47;5622609;28;4848152;-62
2021/04/08 12:31:22;;;;;;;;;6.67;6.67;;;;;15.57;31.32;99006.72;5614992;28;4865836;-62
2021/04/08 12:34:25;;;;;;;;;6.00;5.00;;;;;15.36;32.73;99002.88;5627479;28;4842218;-62
2021/04/08 12:37:30;;;;;;;;;7.60;6.00;;;;;15.20;33.24;99020.00;5615920;28;4859579;-61
2021/04/08 12:40:32;;;;;;;;;7.60;7.00;;;;;14.80;33.99;99030.22;5618783;28;4863738;-62
2021/04/08 12:43:35;;;;;;;;;7.40;7.40;;;;;14.42;36.12;99041.72;5623350;28;4869998;-62
2021/04/08 12:46:42;;;;;;;;;7.40;6.40;;;;;14.07;36.68;99039.97;5646729;28;4868898;-62
2021/04/08 12:49:45;;;;;;;;;7.80;7.20;;;;;13.56;37.59;98999.31;5629707;28;4882526;-62
2021/04/08 12:52:48;;;;;;;;;8.60;8.00;;;;;13.53;37.75;99037.72;5618731;28;4865863;-63
2021/04/08 12:55:55;;;;;;;;;8.40;8.00;;;;;13.52;38.40;99039.59;5666206;28;4879365;-61
2021/04/08 12:59:01;;;;;;;;;8.00;7.00;;;;;13.49;37.35;99033.84;5640927;28;4880793;-62
2021/04/08 13:02:05;;;;;;;;;6.00;6.00;;;;;13.70;36.88;99027.78;5625933;28;4142976;-63
2021/04/08 13:05:08;;;;;;;;;8.00;7.40;;;;;14.08;36.15;99035.34;5629801;28;4862695;-61
2021/04/08 13:08:14;;;;;;;;;6.80;6.20;;;;;14.28;35.16;99047.41;5664381;28;4141953;-62
2021/04/08 13:11:20;;;;;;;;;8.80;8.00;;;;;14.36;33.25;99026.41;5657237;28;4853364;-61
2021/04/08 13:14:43;;;;;;;;;6.00;5.89;;;;;13.97;32.75;99011.81;5651065;28;4856465;-63
2021/04/08 13:17:50;;;;;;;;;3.00;3.00;;;;;14.18;31.35;99032.84;5634651;28;4858896;-63
2021/04/08 13:20:54;;;;;;;;;3.67;3.67;;;;;14.33;31.85;99042.09;5616523;28;4875286;-63
2021/04/08 13:23:57;;;;;;;;;5.00;5.00;;;;;14.76;31.48;99045.34;5627564;28;4848108;-65
2021/04/08 13:27:01;;;;;;;;;8.00;8.00;;;;;14.76;33.27;99042.66;5641191;28;4859985;-61
2021/04/08 13:30:09;;;;;;;;;10.67;10.00;;;;;14.86;34.42;99051.75;5622579;28;5651249;-64
2021/04/08 13:33:15;;;;;;;;;8.83;8.33;;;;;15.14;34.32;99046.28;5643543;28;4066906;-63
2021/04/08 13:36:18;;;;;;;;;7.00;6.00;;;;;15.17;32.27;99058.53;5629567;28;4865860;-62
2021/04/08 13:39:21;;;;;;;;;6.00;6.00;;;;;15.08;32.84;99068.16;5629323;28;4841907;-65
2021/04/08 13:42:24;;;;;;;;;12.67;11.00;;;;;14.72;33.65;99070.25;5616916;28;4328374;-65
2021/04/08 13:45:30;;;;;;;;;11.33;11.00;;;;;14.53;34.05;99055.25;5629130;28;5691869;-62
2021/04/08 13:48:36;;;;;;;;;9.40;9.40;;;;;14.65;33.94;99072.31;5649956;28;4298067;-61
2021/04/08 13:51:42;;;;;;;;;11.00;10.67;;;;;14.55;34.14;99077.53;5640154;28;5686672;-63
2021/04/08 13:54:48;;;;;;;;;9.00;9.00;;;;;14.49;34.11;99078.50;5638014;28;4867895;-62
2021/04/08 13:57:53;;;;;;;;;9.40;9.40;;;;;14.35;33.65;99082.53;5628755;28;4911692;-62
2021/04/08 14:00:59;;;;;;;;;11.00;10.00;;;;;14.27;33.91;99093.75;5640255;28;4931498;-64
2021/04/08 14:04:08;;;;;;;;;12.00;12.00;;;;;14.32;34.40;99091.97;5629676;28;5691844;-63
2021/04/08 14:07:14;;;;;;;;;13.00;12.00;;;;;13.67;35.16;99106.84;5639638;28;5694252;-61
2021/04/08 14:10:22;;;;;;;;;12.00;10.83;;;;;13.00;37.68;99136.84;5632466;28;5685655;-62
2021/04/08 14:13:24;;;;;;;;;10.00;9.40;;;;;12.44;40.50;99168.84;5643564;28;4902289;-63